createdAt,value
2023-01-11T00:00:18.235Z,2.88
2023-01-11T00:03:19.469Z,2.13
2023-01-11T00:06:20.819Z,2.20
2023-01-11T00:09:22.108Z,3.33
2023-01-11T00:12:23.359Z,2.50
2023-01-11T00:15:24.625Z,2.80
2023-01-11T00:18:25.883Z,2.30
2023-01-11T00:21:27.146Z,2.17
2023-01-11T00:24:28.400Z,2.53
2023-01-11T00:27:29.636Z,1.92
2023-01-11T00:30:30.868Z,2.47
2023-01-11T00:33:32.135Z,2.22
2023-01-11T00:36:33.377Z,2.30
2023-01-11T00:39:34.623Z,2.77
2023-01-11T00:42:35.854Z,2.67
2023-01-11T00:45:37.188Z,1.73
2023-01-11T00:48:38.450Z,2.70
2023-01-11T00:51:39.758Z,3.05
2023-01-11T00:54:41.100Z,2.77
2023-01-11T00:57:42.513Z,3.10
2023-01-11T01:00:43.868Z,2.42
2023-01-11T01:03:45.251Z,2.55
2023-01-11T01:06:46.522Z,3.35
2023-01-11T01:09:47.825Z,1.90
2023-01-11T01:12:49.074Z,3.00
2023-01-11T01:15:50.339Z,2.50
2023-01-11T01:18:51.583Z,2.38
2023-01-11T01:21:52.841Z,2.45
2023-01-11T01:24:54.107Z,2.30
2023-01-11T01:27:55.364Z,3.20
2023-01-11T01:30:56.634Z,3.47
2023-01-11T01:33:57.901Z,2.72
2023-01-11T01:36:59.159Z,2.55
2023-01-11T01:40:00.390Z,1.97
2023-01-11T01:43:01.638Z,3.00
2023-01-11T01:46:02.918Z,2.35
2023-01-11T01:49:04.174Z,3.55
2023-01-11T01:52:05.639Z,3.60
2023-01-11T01:55:06.882Z,2.30
2023-01-11T01:58:08.125Z,2.15
2023-01-11T02:01:09.414Z,2.00
2023-01-11T02:04:10.647Z,2.70
2023-01-11T02:07:11.907Z,2.88
2023-01-11T02:10:13.165Z,3.13
2023-01-11T02:13:14.433Z,2.38
2023-01-11T02:16:15.765Z,2.55
2023-01-11T02:19:17.049Z,1.92
2023-01-11T02:22:18.285Z,2.53
2023-01-11T02:25:19.553Z,2.87
2023-01-11T02:28:20.914Z,1.85
2023-01-11T02:31:22.225Z,3.13
2023-01-11T02:34:23.504Z,3.03
2023-01-11T02:37:24.749Z,2.58
2023-01-11T02:40:25.987Z,2.87
2023-01-11T02:43:27.252Z,2.15
2023-01-11T02:46:28.547Z,2.70
2023-01-11T02:49:29.861Z,2.47
2023-01-11T02:52:31.137Z,2.67
2023-01-11T02:55:32.381Z,1.83
2023-01-11T02:58:33.617Z,2.38
2023-01-11T03:01:34.887Z,2.45
2023-01-11T03:04:36.176Z,2.42
2023-01-11T03:07:37.446Z,2.33
2023-01-11T03:10:38.711Z,1.87
2023-01-11T03:13:40.129Z,2.15
2023-01-11T03:16:41.364Z,2.70
2023-01-11T03:19:42.617Z,2.22
2023-01-11T03:22:43.868Z,2.28
2023-01-11T03:25:45.112Z,2.70
2023-01-11T03:28:46.362Z,2.58
2023-01-11T03:31:47.617Z,2.10
2023-01-11T03:34:48.882Z,1.83
2023-01-11T03:37:50.130Z,1.85
2023-01-11T03:40:51.391Z,2.30
2023-01-11T03:43:52.635Z,2.38
2023-01-11T03:46:53.908Z,2.70
2023-01-11T03:49:55.165Z,2.22
2023-01-11T03:52:56.561Z,2.63
2023-01-11T03:55:57.810Z,2.30
2023-01-11T03:58:59.058Z,2.70
2023-01-11T04:02:00.304Z,2.15
2023-01-11T04:05:01.538Z,2.83
2023-01-11T04:08:02.789Z,2.10
2023-01-11T04:11:04.034Z,2.37
2023-01-11T04:14:05.269Z,2.28
2023-01-11T04:17:06.521Z,2.30
2023-01-11T04:20:07.769Z,2.17
2023-01-11T04:23:09.022Z,2.70
2023-01-11T04:26:10.271Z,2.10
2023-01-11T04:29:11.530Z,3.03
2023-01-11T04:32:12.775Z,2.45
2023-01-11T04:35:14.050Z,2.30
2023-01-11T04:38:15.306Z,2.20
2023-01-11T04:41:16.712Z,2.27
2023-01-11T04:44:18.084Z,3.03
2023-01-11T04:47:19.335Z,2.05
2023-01-11T04:50:20.591Z,2.60
2023-01-11T04:53:21.852Z,2.85
2023-01-11T04:56:23.087Z,2.50
2023-01-11T04:59:24.354Z,2.42
2023-01-11T05:02:25.627Z,2.10
2023-01-11T05:05:26.880Z,2.80
2023-01-11T05:08:28.162Z,4.07
2023-01-11T05:11:29.467Z,4.37
2023-01-11T05:14:30.773Z,3.72
2023-01-11T05:17:32.091Z,2.20
2023-01-11T05:20:33.384Z,5.43
2023-01-11T05:23:34.705Z,3.78
2023-01-11T05:26:36.013Z,6.80
2023-01-11T05:29:37.330Z,3.70
2023-01-11T05:32:38.641Z,6.05
2023-01-11T05:35:39.937Z,3.97
2023-01-11T05:38:41.245Z,2.97
2023-01-11T05:41:42.556Z,3.30
2023-01-11T05:44:43.862Z,1.88
2023-01-11T05:47:45.151Z,3.58
2023-01-11T05:50:46.449Z,2.33
2023-01-11T05:53:47.756Z,2.33
2023-01-11T05:56:49.066Z,3.80
2023-01-11T05:59:50.352Z,4.03
2023-01-11T06:02:51.854Z,2.92
2023-01-11T06:05:53.262Z,2.95
2023-01-11T06:08:54.573Z,2.40
2023-01-11T06:11:55.890Z,2.73
2023-01-11T06:14:57.213Z,2.83
2023-01-11T06:17:58.535Z,2.85
2023-01-11T06:20:59.843Z,3.00
2023-01-11T06:24:01.147Z,4.13
2023-01-11T06:27:02.471Z,3.40
2023-01-11T06:30:03.762Z,3.92
2023-01-11T06:33:05.107Z,3.95
2023-01-11T06:36:06.435Z,3.30
2023-01-11T06:39:07.788Z,5.47
2023-01-11T06:42:09.119Z,3.67
2023-01-11T06:45:10.451Z,13.45
2023-01-11T06:48:11.759Z,22.80
2023-01-11T06:51:13.062Z,21.90
2023-01-11T06:54:14.388Z,30.65
2023-01-11T06:57:15.754Z,16.77
2023-01-11T07:00:17.109Z,22.85
2023-01-11T07:03:18.451Z,15.30
2023-01-11T07:06:19.944Z,14.40
2023-01-11T07:09:21.271Z,9.70
2023-01-11T07:12:22.627Z,15.63
2023-01-11T07:15:23.920Z,10.13
2023-01-11T07:18:25.347Z,7.32
2023-01-11T07:21:26.652Z,13.25
2023-01-11T07:24:27.963Z,10.05
2023-01-11T07:27:29.264Z,10.03
2023-01-11T07:30:30.755Z,11.00
2023-01-11T07:33:32.126Z,11.27
2023-01-11T07:36:33.568Z,14.38
2023-01-11T07:39:43.213Z,12.13
2023-01-11T07:42:45.026Z,16.33
2023-01-11T07:45:47.070Z,8.82
2023-01-11T07:48:48.563Z,11.10
2023-01-11T07:51:49.867Z,17.02
2023-01-11T07:54:51.155Z,9.93
2023-01-11T07:57:52.459Z,12.50
2023-01-11T08:00:53.782Z,13.20
2023-01-11T08:03:55.176Z,15.20
2023-01-11T08:06:56.524Z,13.80
2023-01-11T08:09:57.843Z,12.48
2023-01-11T08:12:59.158Z,14.07
2023-01-11T08:16:00.586Z,18.52
2023-01-11T08:19:01.957Z,14.93
2023-01-11T08:22:03.296Z,18.02
2023-01-11T08:25:04.629Z,8.68
2023-01-11T08:28:05.960Z,10.77
2023-01-11T08:31:07.275Z,7.97
2023-01-11T08:34:08.694Z,10.98
2023-01-11T08:37:10.013Z,13.05
2023-01-11T08:40:11.333Z,8.65
2023-01-11T08:43:12.660Z,7.07
2023-01-11T08:46:14.041Z,14.20
2023-01-11T08:49:15.403Z,11.35
2023-01-11T08:52:16.711Z,12.55
2023-01-11T08:55:18.020Z,14.85
2023-01-11T08:58:20.740Z,12.20
2023-01-11T09:01:22.998Z,40.65
2023-01-11T09:04:25.656Z,38.92
2023-01-11T09:07:27.334Z,38.83
2023-01-11T09:10:28.793Z,33.20
2023-01-11T09:13:30.231Z,47.17
2023-01-11T09:16:31.579Z,32.25
2023-01-11T09:19:32.889Z,30.38
2023-01-11T09:22:34.302Z,18.05
2023-01-11T09:25:35.625Z,31.02
2023-01-11T09:28:36.929Z,22.83
2023-01-11T09:31:38.343Z,15.45
2023-01-11T09:34:39.697Z,19.25
2023-01-11T09:37:41.080Z,17.67
2023-01-11T09:40:42.411Z,26.38
2023-01-11T09:43:43.745Z,18.60
2023-01-11T09:46:46.824Z,20.20
2023-01-11T09:49:48.228Z,59.55
2023-01-11T09:52:49.542Z,36.05
2023-01-11T09:55:50.833Z,24.23
2023-01-11T09:58:52.259Z,34.80
2023-01-11T10:01:53.564Z,25.73
2023-01-11T10:04:54.966Z,24.40
2023-01-11T10:18:31.913Z,15.23
2023-01-11T10:18:33.758Z,15.50
2023-01-11T10:21:21.547Z,12.60
2023-01-11T10:24:22.841Z,12.13
2023-01-11T10:27:24.181Z,19.20
2023-01-11T10:30:25.497Z,14.10
2023-01-11T10:33:26.826Z,11.15
2023-01-11T10:36:29.418Z,11.82
2023-01-11T10:39:37.159Z,93.93
2023-01-11T10:42:38.471Z,62.35
2023-01-11T10:45:39.860Z,45.03
2023-01-11T10:48:41.279Z,40.30
2023-01-11T10:51:42.593Z,46.60
2023-01-11T10:54:46.244Z,28.35
2023-01-11T10:58:00.189Z,27.02
2023-01-11T11:01:04.886Z,28.35
2023-01-11T11:04:06.528Z,22.77
2023-01-11T11:07:07.924Z,25.77
2023-01-11T11:10:09.328Z,24.23
2023-01-11T11:13:10.637Z,22.10
2023-01-11T11:16:12.011Z,27.67
2023-01-11T11:19:13.395Z,18.00
2023-01-11T11:22:14.694Z,20.10
2023-01-11T11:25:16.009Z,19.50
2023-01-11T11:28:17.302Z,14.77
2023-01-11T11:31:18.626Z,15.10
2023-01-11T11:34:20.057Z,19.40
2023-01-11T11:37:21.340Z,19.13
2023-01-11T11:40:22.701Z,19.10
2023-01-11T11:43:24.071Z,22.45
2023-01-11T11:46:25.433Z,27.23
2023-01-11T11:49:26.737Z,43.47
2023-01-11T11:52:28.054Z,36.40
2023-01-11T11:55:29.357Z,61.00
2023-01-11T11:58:30.692Z,43.65
2023-01-11T12:01:32.022Z,52.58
2023-01-11T12:04:33.303Z,56.45
2023-01-11T12:07:40.404Z,58.40
2023-01-11T12:10:47.566Z,41.20
2023-01-11T12:13:48.883Z,40.15
2023-01-11T12:16:50.250Z,32.53
2023-01-11T12:19:51.608Z,116.15
2023-01-11T12:22:52.929Z,68.80
2023-01-11T12:25:54.240Z,57.05
2023-01-11T12:28:55.594Z,60.08
2023-01-11T12:31:56.901Z,59.00
2023-01-11T12:34:58.318Z,53.55
2023-01-11T12:37:59.619Z,56.47
2023-01-11T12:41:00.968Z,47.92
2023-01-11T12:44:02.261Z,52.08
2023-01-11T12:47:03.570Z,33.60
2023-01-11T12:50:04.865Z,34.50
2023-01-11T12:53:06.202Z,26.47
2023-01-11T12:56:07.585Z,25.90
2023-01-11T12:59:08.930Z,30.80
2023-01-11T13:02:10.272Z,26.77
2023-01-11T13:05:11.620Z,22.08
2023-01-11T13:08:12.988Z,31.63
2023-01-11T13:11:14.326Z,23.88
2023-01-11T13:14:15.610Z,28.73
2023-01-11T13:17:16.979Z,19.75
2023-01-11T13:20:18.324Z,31.08
2023-01-11T13:23:19.641Z,21.33
2023-01-11T13:26:20.934Z,30.48
2023-01-11T13:29:22.263Z,26.48
2023-01-11T13:32:23.577Z,21.77
2023-01-11T13:35:24.877Z,16.25
2023-01-11T13:38:26.283Z,20.33
2023-01-11T13:41:27.640Z,21.40
2023-01-11T13:44:28.982Z,15.15
2023-01-11T13:47:30.403Z,21.75
2023-01-11T13:50:31.747Z,22.92
2023-01-11T13:53:33.080Z,20.60
2023-01-11T13:56:34.404Z,13.95
2023-01-11T13:59:35.734Z,14.95
2023-01-11T14:02:38.443Z,14.13
2023-01-11T14:05:40.169Z,15.30
2023-01-11T14:08:41.482Z,19.63
2023-01-11T14:11:43.048Z,39.22
2023-01-11T14:14:44.416Z,32.53
2023-01-11T14:17:45.711Z,31.90
2023-01-11T14:20:47.008Z,33.65
2023-01-11T14:23:48.440Z,25.73
2023-01-11T14:26:49.812Z,26.08
2023-01-11T14:29:51.201Z,35.92
2023-01-11T14:32:52.515Z,25.83
2023-01-11T14:35:53.831Z,16.38
2023-01-11T14:38:55.163Z,20.80
2023-01-11T14:41:56.581Z,23.52
2023-01-11T14:44:57.882Z,25.75
2023-01-11T14:47:59.240Z,20.80
2023-01-11T14:51:00.667Z,23.85
2023-01-11T14:54:02.004Z,15.67
2023-01-11T14:57:03.308Z,17.45
2023-01-11T15:00:04.606Z,19.52
2023-01-11T15:03:05.925Z,15.18
2023-01-11T15:06:07.229Z,13.65
2023-01-11T15:09:08.542Z,19.83
2023-01-11T15:12:09.920Z,19.00
2023-01-11T15:15:11.241Z,17.30
2023-01-11T15:18:12.638Z,33.95
2023-01-11T15:21:13.980Z,19.88
2023-01-11T15:24:15.279Z,25.10
2023-01-11T15:27:16.647Z,20.77
2023-01-11T15:30:17.987Z,22.50
2023-01-11T15:33:19.370Z,19.17
2023-01-11T15:36:20.718Z,24.58
2023-01-11T15:39:22.016Z,19.10
2023-01-11T15:42:23.378Z,20.70
2023-01-11T15:45:24.659Z,21.23
2023-01-11T15:48:25.977Z,14.52
2023-01-11T15:51:27.470Z,59.67
2023-01-11T15:54:28.808Z,190.57
2023-01-11T15:57:30.117Z,86.32
2023-01-11T16:00:31.531Z,50.67
2023-01-11T16:03:32.839Z,48.22
2023-01-11T16:06:34.158Z,55.92
2023-01-11T16:09:35.443Z,38.87
2023-01-11T16:12:36.764Z,44.88
2023-01-11T16:15:38.075Z,36.25
2023-01-11T16:18:39.380Z,42.42
2023-01-11T16:21:40.679Z,41.30
2023-01-11T16:24:42.021Z,42.17
2023-01-11T16:27:43.353Z,39.15
2023-01-11T16:30:44.644Z,45.28
2023-01-11T16:33:47.574Z,31.17
2023-01-11T16:36:50.754Z,31.17
2023-01-11T16:39:52.168Z,33.90
2023-01-11T16:42:53.478Z,47.10
2023-01-11T16:45:54.861Z,24.85
2023-01-11T16:48:56.277Z,52.17
2023-01-11T16:51:57.598Z,46.47
2023-01-11T16:54:58.914Z,50.07
2023-01-11T16:58:00.209Z,47.13
2023-01-11T17:01:01.593Z,37.55
2023-01-11T17:04:04.974Z,31.27
2023-01-11T17:07:08.501Z,32.90
2023-01-11T17:10:09.789Z,33.77
2023-01-11T17:13:11.121Z,37.45
2023-01-11T17:16:12.582Z,35.35
2023-01-11T17:19:13.966Z,29.35
2023-01-11T17:22:15.246Z,25.88
2023-01-11T17:25:16.708Z,31.77
2023-01-11T17:28:18.020Z,30.38
2023-01-11T17:31:19.369Z,28.33
2023-01-11T17:34:20.696Z,23.35
2023-01-11T17:37:21.999Z,27.88
2023-01-11T17:40:23.284Z,28.50
2023-01-11T17:43:24.588Z,28.92
2023-01-11T17:46:25.902Z,28.10
2023-01-11T17:49:27.242Z,24.27
2023-01-11T17:52:28.546Z,29.52
2023-01-11T17:55:29.856Z,30.33
2023-01-11T17:58:31.187Z,30.27
2023-01-11T18:01:32.545Z,28.15
2023-01-11T18:04:33.875Z,30.23
2023-01-11T18:07:35.190Z,28.13
2023-01-11T18:10:36.504Z,29.60
2023-01-11T18:13:37.815Z,28.48
2023-01-11T18:16:39.166Z,27.45
2023-01-11T18:19:40.574Z,33.67
2023-01-11T18:22:41.963Z,31.10
2023-01-11T18:25:43.270Z,30.50
2023-01-11T18:28:44.670Z,32.65
2023-01-11T18:31:46.022Z,30.52
2023-01-11T18:34:47.344Z,32.72
2023-01-11T18:37:48.665Z,29.63
2023-01-11T18:40:50.081Z,29.87
2023-01-11T18:43:51.419Z,29.35
2023-01-11T18:46:53.210Z,26.77
2023-01-11T18:49:54.640Z,27.45
2023-01-11T18:52:55.969Z,29.90
2023-01-11T18:55:57.597Z,27.17
2023-01-11T18:58:58.950Z,30.45
2023-01-11T19:02:15.756Z,27.02
2023-01-11T19:05:18.131Z,29.20
2023-01-11T19:08:19.528Z,25.77
2023-01-11T19:11:20.863Z,29.17
2023-01-11T19:14:22.219Z,28.50
2023-01-11T19:17:23.582Z,24.80
2023-01-11T19:20:25.303Z,23.73
2023-01-11T19:23:27.449Z,25.83
2023-01-11T19:26:29.280Z,24.83
2023-01-11T19:29:31.091Z,27.10
2023-01-11T19:32:32.861Z,22.73
2023-01-11T19:35:34.663Z,22.35
2023-01-11T19:38:36.361Z,23.95
2023-01-11T19:41:37.811Z,22.73
2023-01-11T19:44:39.166Z,21.80
2023-01-11T19:47:40.494Z,23.17
2023-01-11T19:50:42.188Z,22.85
2023-01-11T19:53:43.589Z,21.20
2023-01-11T19:56:44.909Z,22.07
2023-01-11T19:59:46.276Z,23.33
2023-01-11T20:02:47.803Z,20.63
2023-01-11T20:05:49.758Z,21.63
2023-01-11T20:08:51.506Z,20.95
2023-01-11T20:11:52.891Z,21.77
2023-01-11T20:14:55.771Z,22.88
2023-01-11T20:17:58.208Z,20.52
2023-01-11T20:20:59.551Z,20.17
2023-01-11T20:24:01.263Z,21.25
2023-01-11T20:27:03.111Z,22.73
2023-01-11T20:30:04.626Z,21.10
2023-01-11T20:33:06.356Z,20.35
2023-01-11T20:36:08.026Z,21.67
2023-01-11T20:39:13.043Z,21.00
2023-01-11T20:42:14.470Z,19.43
2023-01-11T20:45:15.802Z,20.25
2023-01-11T20:48:17.438Z,21.92
2023-01-11T20:51:18.817Z,19.75
2023-01-11T20:54:20.139Z,21.00
2023-01-11T20:57:21.453Z,19.33
2023-01-11T21:00:22.780Z,21.50
2023-01-11T21:03:24.106Z,19.98
2023-01-11T21:06:25.422Z,20.48
2023-01-11T21:09:26.726Z,18.02
2023-01-11T21:12:28.047Z,18.83
2023-01-11T21:15:29.374Z,18.40
2023-01-11T21:18:30.713Z,19.13
2023-01-11T21:21:32.029Z,18.95
2023-01-11T21:24:33.326Z,19.67
2023-01-11T21:27:34.621Z,20.23
2023-01-11T21:30:35.960Z,18.30
2023-01-11T21:33:38.057Z,18.95
2023-01-11T21:36:39.448Z,20.70
2023-01-11T21:39:40.759Z,18.02
2023-01-11T21:42:42.087Z,18.40
2023-01-11T21:45:43.404Z,20.42
2023-01-11T21:48:44.758Z,18.30
2023-01-11T21:51:46.247Z,17.20
2023-01-11T21:54:47.552Z,18.15
2023-01-11T21:57:48.904Z,16.77
2023-01-11T22:00:50.268Z,16.92
2023-01-11T22:03:51.675Z,15.95
2023-01-11T22:06:52.995Z,15.88
2023-01-11T22:10:04.518Z,18.17
2023-01-11T22:13:06.333Z,18.33
2023-01-11T22:16:07.654Z,18.27
2023-01-11T22:19:08.961Z,14.93
2023-01-11T22:22:10.257Z,17.75
2023-01-11T22:25:11.560Z,15.88
2023-01-11T22:28:12.872Z,13.90
2023-01-11T22:31:14.196Z,16.17
2023-01-11T22:34:15.552Z,15.15
2023-01-11T22:37:16.860Z,15.98
2023-01-11T22:40:18.210Z,15.80
2023-01-11T22:43:19.535Z,14.87
2023-01-11T22:46:20.858Z,15.93
2023-01-11T22:49:22.304Z,14.48
2023-01-11T22:52:23.624Z,15.00
2023-01-11T22:55:24.955Z,16.48
2023-01-11T22:58:26.239Z,15.03
2023-01-11T23:01:27.554Z,14.88
2023-01-11T23:04:28.876Z,15.27
2023-01-11T23:07:30.156Z,16.00
2023-01-11T23:10:31.462Z,14.20
2023-01-11T23:13:32.745Z,14.53
2023-01-11T23:16:34.144Z,15.85
2023-01-11T23:19:35.447Z,16.48
2023-01-11T23:22:36.754Z,13.73
2023-01-11T23:25:38.057Z,14.70
2023-01-11T23:28:39.377Z,13.67
2023-01-11T23:31:40.751Z,13.38
2023-01-11T23:34:42.191Z,14.55
2023-01-11T23:37:43.481Z,15.32
2023-01-11T23:40:44.795Z,13.63
2023-01-11T23:43:46.078Z,15.33
2023-01-11T23:46:47.378Z,13.38
2023-01-11T23:49:48.717Z,12.80
2023-01-11T23:52:50.017Z,14.48
2023-01-11T23:55:51.324Z,13.98
2023-01-11T23:58:52.615Z,13.33
